04I weather

Columbus Southwest Airport
Columbus, Ohio, United States

Public forecast

Using degrees Fahrenheit for public forecast. Weather courtesy of forecast.io.

Closest aviation weather report (METAR) to Columbus Southwest Airport

Closest report is Bolton Field, 2.5 nm (4.6 km) ESE. Retrieved 2019/10/14 13:45 UTC (27 minutes ago):

KTZR 141345Z 26004KT 10SM SKC 11/04 A3009

Closest aviation forecast (TAF) to Columbus Southwest Airport

Closest forecast is Rickenbacker International Airport, 13.4 nm (24.8 km) ESE. Retrieved 2019/10/14 12:30 UTC (2 hours ago):

TAF KLCK 141126Z 1412/1512 26005KT P6SM SKC FM141500 27010G16KT P6SM SKC FM150000 VRB03KT P6SM FEW250